sensor_id;sensor_type;location;lat;lon;timestamp;P1;durP1;ratioP1;P2;durP2;ratioP2
57790;SDS011;43621;51.798;21.588;2023-03-01T00:01:24;100.80;;;44.00;;
57790;SDS011;43621;51.798;21.588;2023-03-01T00:05:30;93.60;;;42.80;;
57790;SDS011;43621;51.798;21.588;2023-03-01T00:09:33;87.10;;;40.00;;
57790;SDS011;43621;51.798;21.588;2023-03-01T00:13:35;86.50;;;41.00;;
57790;SDS011;43621;51.798;21.588;2023-03-01T00:17:37;90.80;;;39.90;;
57790;SDS011;43621;51.798;21.588;2023-03-01T00:21:39;86.60;;;41.20;;
57790;SDS011;43621;51.798;21.588;2023-03-01T00:25:42;76.80;;;36.50;;
57790;SDS011;43621;51.798;21.588;2023-03-01T00:29:44;95.60;;;41.80;;
57790;SDS011;43621;51.798;21.588;2023-03-01T00:33:46;80.50;;;37.40;;
57790;SDS011;43621;51.798;21.588;2023-03-01T00:37:48;81.70;;;39.40;;
57790;SDS011;43621;51.798;21.588;2023-03-01T00:41:54;81.10;;;38.20;;
57790;SDS011;43621;51.798;21.588;2023-03-01T00:46:00;76.70;;;36.10;;
57790;SDS011;43621;51.798;21.588;2023-03-01T00:50:03;78.90;;;36.40;;
57790;SDS011;43621;51.798;21.588;2023-03-01T00:54:05;77.10;;;36.80;;
57790;SDS011;43621;51.798;21.588;2023-03-01T00:58:07;77.10;;;38.10;;
57790;SDS011;43621;51.798;21.588;2023-03-01T01:02:09;85.60;;;38.80;;
57790;SDS011;43621;51.798;21.588;2023-03-01T01:06:18;81.20;;;39.60;;
57790;SDS011;43621;51.798;21.588;2023-03-01T01:10:22;92.70;;;41.00;;
57790;SDS011;43621;51.798;21.588;2023-03-01T01:14:24;92.60;;;40.20;;
57790;SDS011;43621;51.798;21.588;2023-03-01T01:18:26;85.70;;;39.30;;
57790;SDS011;43621;51.798;21.588;2023-03-01T01:22:28;82.70;;;38.20;;
57790;SDS011;43621;51.798;21.588;2023-03-01T01:26:31;77.40;;;38.50;;
57790;SDS011;43621;51.798;21.588;2023-03-01T01:30:34;75.80;;;36.60;;
57790;SDS011;43621;51.798;21.588;2023-03-01T01:34:36;84.60;;;37.80;;
57790;SDS011;43621;51.798;21.588;2023-03-01T01:38:38;84.00;;;40.90;;
57790;SDS011;43621;51.798;21.588;2023-03-01T01:42:40;80.60;;;39.50;;
57790;SDS011;43621;51.798;21.588;2023-03-01T01:46:53;87.50;;;40.10;;
57790;SDS011;43621;51.798;21.588;2023-03-01T01:50:59;85.00;;;40.50;;
57790;SDS011;43621;51.798;21.588;2023-03-01T01:55:03;94.10;;;42.10;;
57790;SDS011;43621;51.798;21.588;2023-03-01T01:59:09;93.30;;;40.80;;
57790;SDS011;43621;51.798;21.588;2023-03-01T02:03:14;89.70;;;39.30;;
57790;SDS011;43621;51.798;21.588;2023-03-01T02:07:21;81.40;;;38.50;;
57790;SDS011;43621;51.798;21.588;2023-03-01T02:11:25;89.30;;;38.10;;
57790;SDS011;43621;51.798;21.588;2023-03-01T02:15:31;84.40;;;39.50;;
57790;SDS011;43621;51.798;21.588;2023-03-01T02:23:53;97.20;;;40.00;;
57790;SDS011;43621;51.798;21.588;2023-03-01T02:28:42;88.90;;;40.70;;
57790;SDS011;43621;51.798;21.588;2023-03-01T02:32:32;104.40;;;43.40;;
57790;SDS011;43621;51.798;21.588;2023-03-01T02:36:35;100.10;;;43.40;;
57790;SDS011;43621;51.798;21.588;2023-03-01T02:40:39;102.50;;;45.20;;
57790;SDS011;43621;51.798;21.588;2023-03-01T02:44:42;103.50;;;45.70;;
57790;SDS011;43621;51.798;21.588;2023-03-01T02:48:45;100.10;;;45.00;;
57790;SDS011;43621;51.798;21.588;2023-03-01T02:57:14;99.80;;;42.80;;
57790;SDS011;43621;51.798;21.588;2023-03-01T03:01:17;85.30;;;41.60;;
57790;SDS011;43621;51.798;21.588;2023-03-01T03:05:22;83.10;;;39.90;;
57790;SDS011;43621;51.798;21.588;2023-03-01T03:09:27;87.50;;;37.80;;
57790;SDS011;43621;51.798;21.588;2023-03-01T03:13:29;84.90;;;37.40;;
57790;SDS011;43621;51.798;21.588;2023-03-01T03:17:31;86.70;;;36.50;;
57790;SDS011;43621;51.798;21.588;2023-03-01T03:21:34;81.40;;;37.50;;
57790;SDS011;43621;51.798;21.588;2023-03-01T03:25:36;75.00;;;35.70;;
57790;SDS011;43621;51.798;21.588;2023-03-01T03:29:39;85.40;;;36.60;;
57790;SDS011;43621;51.798;21.588;2023-03-01T03:33:41;87.70;;;38.10;;
57790;SDS011;43621;51.798;21.588;2023-03-01T03:37:43;79.00;;;35.20;;
57790;SDS011;43621;51.798;21.588;2023-03-01T03:42:03;77.90;;;35.20;;
57790;SDS011;43621;51.798;21.588;2023-03-01T03:46:05;67.20;;;33.00;;
57790;SDS011;43621;51.798;21.588;2023-03-01T03:50:09;66.60;;;31.80;;
57790;SDS011;43621;51.798;21.588;2023-03-01T03:54:12;76.80;;;34.40;;
57790;SDS011;43621;51.798;21.588;2023-03-01T03:58:15;74.30;;;35.10;;
57790;SDS011;43621;51.798;21.588;2023-03-01T04:02:20;69.10;;;30.30;;
57790;SDS011;43621;51.798;21.588;2023-03-01T04:06:23;64.10;;;29.50;;
57790;SDS011;43621;51.798;21.588;2023-03-01T04:10:25;67.40;;;31.80;;
57790;SDS011;43621;51.798;21.588;2023-03-01T04:14:26;66.90;;;32.30;;
57790;SDS011;43621;51.798;21.588;2023-03-01T04:18:28;66.90;;;31.70;;
57790;SDS011;43621;51.798;21.588;2023-03-01T04:22:30;67.60;;;30.70;;
57790;SDS011;43621;51.798;21.588;2023-03-01T04:26:33;66.00;;;30.00;;
57790;SDS011;43621;51.798;21.588;2023-03-01T04:30:35;67.20;;;31.50;;
57790;SDS011;43621;51.798;21.588;2023-03-01T04:34:38;68.50;;;31.80;;
57790;SDS011;43621;51.798;21.588;2023-03-01T04:38:40;72.10;;;31.30;;
57790;SDS011;43621;51.798;21.588;2023-03-01T04:42:42;60.60;;;29.40;;
57790;SDS011;43621;51.798;21.588;2023-03-01T04:46:44;64.10;;;30.20;;
57790;SDS011;43621;51.798;21.588;2023-03-01T04:50:46;65.30;;;29.80;;
57790;SDS011;43621;51.798;21.588;2023-03-01T04:54:48;65.60;;;31.20;;
57790;SDS011;43621;51.798;21.588;2023-03-01T04:58:52;70.20;;;32.40;;
57790;SDS011;43621;51.798;21.588;2023-03-01T05:02:59;55.80;;;26.60;;
57790;SDS011;43621;51.798;21.588;2023-03-01T05:07:02;67.80;;;29.60;;
57790;SDS011;43621;51.798;21.588;2023-03-01T05:11:04;59.00;;;27.60;;
57790;SDS011;43621;51.798;21.588;2023-03-01T05:15:07;68.00;;;31.00;;
57790;SDS011;43621;51.798;21.588;2023-03-01T05:19:09;58.20;;;27.50;;
57790;SDS011;43621;51.798;21.588;2023-03-01T05:23:16;62.50;;;29.20;;
57790;SDS011;43621;51.798;21.588;2023-03-01T05:27:19;78.00;;;32.00;;
57790;SDS011;43621;51.798;21.588;2023-03-01T05:31:23;103.20;;;52.00;;
57790;SDS011;43621;51.798;21.588;2023-03-01T05:35:25;66.50;;;31.50;;
57790;SDS011;43621;51.798;21.588;2023-03-01T05:39:28;58.50;;;27.00;;
57790;SDS011;43621;51.798;21.588;2023-03-01T05:43:31;69.40;;;33.10;;
57790;SDS011;43621;51.798;21.588;2023-03-01T05:47:35;125.80;;;63.00;;
57790;SDS011;43621;51.798;21.588;2023-03-01T05:51:37;95.60;;;53.10;;
57790;SDS011;43621;51.798;21.588;2023-03-01T05:55:39;79.90;;;34.60;;
57790;SDS011;43621;51.798;21.588;2023-03-01T05:59:41;59.10;;;27.30;;
57790;SDS011;43621;51.798;21.588;2023-03-01T06:03:43;58.60;;;30.90;;
57790;SDS011;43621;51.798;21.588;2023-03-01T06:07:45;55.00;;;27.20;;
57790;SDS011;43621;51.798;21.588;2023-03-01T06:11:47;50.30;;;27.20;;
57790;SDS011;43621;51.798;21.588;2023-03-01T06:15:49;52.60;;;27.80;;
57790;SDS011;43621;51.798;21.588;2023-03-01T06:19:50;52.70;;;26.60;;
57790;SDS011;43621;51.798;21.588;2023-03-01T06:23:52;52.10;;;26.90;;
57790;SDS011;43621;51.798;21.588;2023-03-01T06:27:54;52.00;;;28.00;;
57790;SDS011;43621;51.798;21.588;2023-03-01T06:31:56;47.50;;;27.00;;
57790;SDS011;43621;51.798;21.588;2023-03-01T06:35:58;57.00;;;30.10;;
57790;SDS011;43621;51.798;21.588;2023-03-01T06:40:00;59.10;;;30.90;;
57790;SDS011;43621;51.798;21.588;2023-03-01T06:44:09;50.90;;;28.30;;
57790;SDS011;43621;51.798;21.588;2023-03-01T06:48:11;42.30;;;26.70;;
57790;SDS011;43621;51.798;21.588;2023-03-01T06:52:13;54.00;;;30.80;;
57790;SDS011;43621;51.798;21.588;2023-03-01T06:56:15;48.50;;;31.20;;
57790;SDS011;43621;51.798;21.588;2023-03-01T07:00:17;48.00;;;31.10;;
57790;SDS011;43621;51.798;21.588;2023-03-01T07:04:20;49.30;;;31.30;;
57790;SDS011;43621;51.798;21.588;2023-03-01T07:08:22;50.90;;;28.50;;
57790;SDS011;43621;51.798;21.588;2023-03-01T07:12:24;49.80;;;29.60;;
57790;SDS011;43621;51.798;21.588;2023-03-01T07:16:26;97.20;;;29.30;;
57790;SDS011;43621;51.798;21.588;2023-03-01T07:20:27;34.80;;;26.90;;
57790;SDS011;43621;51.798;21.588;2023-03-01T07:24:29;42.20;;;30.80;;
57790;SDS011;43621;51.798;21.588;2023-03-01T07:28:31;34.00;;;25.50;;
57790;SDS011;43621;51.798;21.588;2023-03-01T07:32:37;33.10;;;24.20;;
57790;SDS011;43621;51.798;21.588;2023-03-01T07:36:39;34.90;;;27.20;;
57790;SDS011;43621;51.798;21.588;2023-03-01T07:40:44;28.00;;;23.00;;
57790;SDS011;43621;51.798;21.588;2023-03-01T07:44:46;27.10;;;23.40;;
57790;SDS011;43621;51.798;21.588;2023-03-01T07:48:48;27.90;;;24.30;;
57790;SDS011;43621;51.798;21.588;2023-03-01T07:52:49;30.50;;;25.00;;
57790;SDS011;43621;51.798;21.588;2023-03-01T07:56:51;24.90;;;22.20;;
57790;SDS011;43621;51.798;21.588;2023-03-01T08:00:53;28.20;;;23.80;;
57790;SDS011;43621;51.798;21.588;2023-03-01T08:04:55;24.20;;;21.70;;
57790;SDS011;43621;51.798;21.588;2023-03-01T08:08:57;28.70;;;23.50;;
57790;SDS011;43621;51.798;21.588;2023-03-01T08:12:59;27.60;;;24.50;;
57790;SDS011;43621;51.798;21.588;2023-03-01T08:17:01;39.90;;;35.60;;
57790;SDS011;43621;51.798;21.588;2023-03-01T08:21:08;35.70;;;31.00;;
57790;SDS011;43621;51.798;21.588;2023-03-01T08:25:12;24.50;;;22.00;;
57790;SDS011;43621;51.798;21.588;2023-03-01T08:29:14;31.30;;;26.20;;
57790;SDS011;43621;51.798;21.588;2023-03-01T08:33:15;23.90;;;21.40;;
57790;SDS011;43621;51.798;21.588;2023-03-01T08:37:17;20.60;;;18.60;;
57790;SDS011;43621;51.798;21.588;2023-03-01T08:41:19;25.30;;;22.50;;
57790;SDS011;43621;51.798;21.588;2023-03-01T08:45:21;34.30;;;31.20;;
57790;SDS011;43621;51.798;21.588;2023-03-01T08:49:23;22.20;;;20.20;;
57790;SDS011;43621;51.798;21.588;2023-03-01T08:53:25;24.60;;;22.40;;
57790;SDS011;43621;51.798;21.588;2023-03-01T08:57:26;35.20;;;25.50;;
57790;SDS011;43621;51.798;21.588;2023-03-01T09:01:28;20.90;;;18.90;;
57790;SDS011;43621;51.798;21.588;2023-03-01T09:05:31;24.60;;;22.30;;
57790;SDS011;43621;51.798;21.588;2023-03-01T09:09:34;21.30;;;19.40;;
57790;SDS011;43621;51.798;21.588;2023-03-01T09:13:36;26.00;;;20.70;;
57790;SDS011;43621;51.798;21.588;2023-03-01T09:17:39;19.70;;;17.80;;
57790;SDS011;43621;51.798;21.588;2023-03-01T09:21:41;32.50;;;23.40;;
57790;SDS011;43621;51.798;21.588;2023-03-01T09:25:42;23.50;;;19.70;;
57790;SDS011;43621;51.798;21.588;2023-03-01T09:29:44;18.90;;;16.80;;
57790;SDS011;43621;51.798;21.588;2023-03-01T09:33:47;19.60;;;17.50;;
57790;SDS011;43621;51.798;21.588;2023-03-01T09:37:50;17.30;;;15.10;;
57790;SDS011;43621;51.798;21.588;2023-03-01T09:42:00;22.50;;;19.90;;
57790;SDS011;43621;51.798;21.588;2023-03-01T09:46:06;18.00;;;15.60;;
57790;SDS011;43621;51.798;21.588;2023-03-01T09:50:12;81.10;;;37.50;;
57790;SDS011;43621;51.798;21.588;2023-03-01T09:54:20;13.80;;;12.40;;
57790;SDS011;43621;51.798;21.588;2023-03-01T09:58:34;16.00;;;14.40;;
57790;SDS011;43621;51.798;21.588;2023-03-01T10:15:38;13.20;;;11.80;;
57790;SDS011;43621;51.798;21.588;2023-03-01T10:19:45;14.70;;;13.20;;
57790;SDS011;43621;51.798;21.588;2023-03-01T10:23:51;23.20;;;20.10;;
57790;SDS011;43621;51.798;21.588;2023-03-01T10:27:55;13.40;;;12.00;;
57790;SDS011;43621;51.798;21.588;2023-03-01T10:32:04;19.00;;;13.60;;
57790;SDS011;43621;51.798;21.588;2023-03-01T10:36:08;12.20;;;10.90;;
57790;SDS011;43621;51.798;21.588;2023-03-01T10:40:10;13.20;;;12.00;;
57790;SDS011;43621;51.798;21.588;2023-03-01T10:44:34;14.40;;;11.80;;
57790;SDS011;43621;51.798;21.588;2023-03-01T10:48:42;12.10;;;10.90;;
57790;SDS011;43621;51.798;21.588;2023-03-01T10:52:54;30.90;;;24.60;;
57790;SDS011;43621;51.798;21.588;2023-03-01T10:57:03;15.60;;;12.50;;
57790;SDS011;43621;51.798;21.588;2023-03-01T11:05:21;10.80;;;9.70;;
57790;SDS011;43621;51.798;21.588;2023-03-01T11:09:33;16.80;;;15.00;;
57790;SDS011;43621;51.798;21.588;2023-03-01T11:14:00;17.30;;;15.50;;
57790;SDS011;43621;51.798;21.588;2023-03-01T11:18:20;10.50;;;8.80;;
57790;SDS011;43621;51.798;21.588;2023-03-01T11:22:24;14.50;;;13.10;;
57790;SDS011;43621;51.798;21.588;2023-03-01T11:26:26;11.70;;;10.50;;
57790;SDS011;43621;51.798;21.588;2023-03-01T11:39:22;10.60;;;7.20;;
57790;SDS011;43621;51.798;21.588;2023-03-01T11:43:46;12.50;;;9.40;;
57790;SDS011;43621;51.798;21.588;2023-03-01T11:56:43;13.10;;;6.30;;
57790;SDS011;43621;51.798;21.588;2023-03-01T12:05:50;7.80;;;6.00;;
57790;SDS011;43621;51.798;21.588;2023-03-01T12:10:20;14.40;;;7.20;;
57790;SDS011;43621;51.798;21.588;2023-03-01T12:19:08;10.50;;;6.60;;
57790;SDS011;43621;51.798;21.588;2023-03-01T12:49:13;10.60;;;6.20;;
57790;SDS011;43621;51.798;21.588;2023-03-01T12:53:23;12.00;;;6.00;;
57790;SDS011;43621;51.798;21.588;2023-03-01T12:58:02;12.20;;;6.00;;
57790;SDS011;43621;51.798;21.588;2023-03-01T13:11:05;8.60;;;5.40;;
57790;SDS011;43621;51.798;21.588;2023-03-01T13:19:24;15.40;;;7.00;;
57790;SDS011;43621;51.798;21.588;2023-03-01T13:23:34;12.10;;;5.60;;
57790;SDS011;43621;51.798;21.588;2023-03-01T13:27:38;15.00;;;12.00;;
57790;SDS011;43621;51.798;21.588;2023-03-01T13:35:43;22.50;;;10.50;;
57790;SDS011;43621;51.798;21.588;2023-03-01T13:39:46;20.20;;;14.90;;
57790;SDS011;43621;51.798;21.588;2023-03-01T13:43:48;10.00;;;6.30;;
57790;SDS011;43621;51.798;21.588;2023-03-01T13:47:53;13.00;;;8.30;;
57790;SDS011;43621;51.798;21.588;2023-03-01T13:51:59;14.30;;;9.80;;
57790;SDS011;43621;51.798;21.588;2023-03-01T14:00:29;16.30;;;10.20;;
57790;SDS011;43621;51.798;21.588;2023-03-01T14:04:39;16.30;;;10.90;;
57790;SDS011;43621;51.798;21.588;2023-03-01T14:08:42;43.20;;;33.40;;
57790;SDS011;43621;51.798;21.588;2023-03-01T14:12:48;17.50;;;10.40;;
57790;SDS011;43621;51.798;21.588;2023-03-01T14:20:58;20.80;;;12.40;;
57790;SDS011;43621;51.798;21.588;2023-03-01T14:25:02;19.80;;;11.60;;
57790;SDS011;43621;51.798;21.588;2023-03-01T14:29:27;31.20;;;15.40;;
57790;SDS011;43621;51.798;21.588;2023-03-01T14:33:39;20.70;;;13.00;;
57790;SDS011;43621;51.798;21.588;2023-03-01T14:37:42;17.40;;;11.80;;
57790;SDS011;43621;51.798;21.588;2023-03-01T14:41:44;21.30;;;12.50;;
57790;SDS011;43621;51.798;21.588;2023-03-01T14:45:47;61.60;;;26.30;;
57790;SDS011;43621;51.798;21.588;2023-03-01T14:49:53;19.40;;;11.90;;
57790;SDS011;43621;51.798;21.588;2023-03-01T14:54:01;25.20;;;14.60;;
57790;SDS011;43621;51.798;21.588;2023-03-01T14:58:04;23.60;;;15.00;;
57790;SDS011;43621;51.798;21.588;2023-03-01T15:02:08;17.80;;;10.60;;
57790;SDS011;43621;51.798;21.588;2023-03-01T15:06:22;72.90;;;38.00;;
57790;SDS011;43621;51.798;21.588;2023-03-01T15:10:26;45.30;;;20.10;;
57790;SDS011;43621;51.798;21.588;2023-03-01T15:14:40;42.10;;;26.70;;
57790;SDS011;43621;51.798;21.588;2023-03-01T15:18:54;73.00;;;23.10;;
57790;SDS011;43621;51.798;21.588;2023-03-01T15:22:59;82.60;;;21.70;;
57790;SDS011;43621;51.798;21.588;2023-03-01T15:27:02;22.10;;;11.80;;
57790;SDS011;43621;51.798;21.588;2023-03-01T15:39:53;47.10;;;22.80;;
57790;SDS011;43621;51.798;21.588;2023-03-01T15:43:57;54.80;;;22.70;;
57790;SDS011;43621;51.798;21.588;2023-03-01T15:48:02;44.50;;;20.10;;
57790;SDS011;43621;51.798;21.588;2023-03-01T15:52:22;48.80;;;24.10;;
57790;SDS011;43621;51.798;21.588;2023-03-01T15:56:30;60.40;;;22.60;;
57790;SDS011;43621;51.798;21.588;2023-03-01T16:00:32;46.00;;;24.00;;
57790;SDS011;43621;51.798;21.588;2023-03-01T16:04:34;43.60;;;23.00;;
57790;SDS011;43621;51.798;21.588;2023-03-01T16:08:37;48.10;;;24.10;;
57790;SDS011;43621;51.798;21.588;2023-03-01T16:12:39;38.40;;;18.00;;
57790;SDS011;43621;51.798;21.588;2023-03-01T16:16:42;55.10;;;33.60;;
57790;SDS011;43621;51.798;21.588;2023-03-01T16:20:44;47.80;;;24.40;;
57790;SDS011;43621;51.798;21.588;2023-03-01T16:24:46;57.00;;;27.50;;
57790;SDS011;43621;51.798;21.588;2023-03-01T16:28:48;60.30;;;27.20;;
57790;SDS011;43621;51.798;21.588;2023-03-01T16:32:50;73.10;;;33.50;;
57790;SDS011;43621;51.798;21.588;2023-03-01T16:36:52;85.50;;;36.10;;
57790;SDS011;43621;51.798;21.588;2023-03-01T16:40:54;74.40;;;30.90;;
57790;SDS011;43621;51.798;21.588;2023-03-01T16:44:56;53.80;;;24.30;;
57790;SDS011;43621;51.798;21.588;2023-03-01T16:48:59;38.30;;;17.50;;
57790;SDS011;43621;51.798;21.588;2023-03-01T16:53:01;35.50;;;15.90;;
57790;SDS011;43621;51.798;21.588;2023-03-01T16:57:03;97.30;;;40.70;;
57790;SDS011;43621;51.798;21.588;2023-03-01T17:05:08;68.10;;;28.10;;
57790;SDS011;43621;51.798;21.588;2023-03-01T17:09:12;85.10;;;35.20;;
57790;SDS011;43621;51.798;21.588;2023-03-01T17:13:14;174.90;;;71.50;;
57790;SDS011;43621;51.798;21.588;2023-03-01T17:17:16;175.00;;;69.00;;
57790;SDS011;43621;51.798;21.588;2023-03-01T17:21:18;178.30;;;81.20;;
57790;SDS011;43621;51.798;21.588;2023-03-01T17:25:20;134.70;;;57.00;;
57790;SDS011;43621;51.798;21.588;2023-03-01T17:29:22;148.20;;;61.00;;
57790;SDS011;43621;51.798;21.588;2023-03-01T17:33:24;115.00;;;52.80;;
57790;SDS011;43621;51.798;21.588;2023-03-01T17:37:26;106.70;;;45.40;;
57790;SDS011;43621;51.798;21.588;2023-03-01T17:41:27;114.80;;;44.90;;
57790;SDS011;43621;51.798;21.588;2023-03-01T17:45:29;90.50;;;39.80;;
57790;SDS011;43621;51.798;21.588;2023-03-01T17:49:31;87.00;;;38.80;;
57790;SDS011;43621;51.798;21.588;2023-03-01T17:53:34;99.00;;;38.60;;
57790;SDS011;43621;51.798;21.588;2023-03-01T17:57:39;133.40;;;46.30;;
57790;SDS011;43621;51.798;21.588;2023-03-01T18:01:41;77.20;;;35.00;;
57790;SDS011;43621;51.798;21.588;2023-03-01T18:05:43;72.10;;;33.50;;
57790;SDS011;43621;51.798;21.588;2023-03-01T18:09:45;114.50;;;46.60;;
57790;SDS011;43621;51.798;21.588;2023-03-01T18:13:48;201.00;;;87.60;;
57790;SDS011;43621;51.798;21.588;2023-03-01T18:17:51;173.70;;;72.00;;
57790;SDS011;43621;51.798;21.588;2023-03-01T18:21:53;200.10;;;87.50;;
57790;SDS011;43621;51.798;21.588;2023-03-01T18:25:59;251.90;;;103.60;;
57790;SDS011;43621;51.798;21.588;2023-03-01T18:30:06;288.60;;;115.80;;
57790;SDS011;43621;51.798;21.588;2023-03-01T18:34:10;292.00;;;121.20;;
57790;SDS011;43621;51.798;21.588;2023-03-01T18:38:12;313.20;;;131.30;;
57790;SDS011;43621;51.798;21.588;2023-03-01T18:42:14;278.70;;;115.60;;
57790;SDS011;43621;51.798;21.588;2023-03-01T18:46:16;254.00;;;107.70;;
57790;SDS011;43621;51.798;21.588;2023-03-01T18:50:20;235.50;;;98.10;;
57790;SDS011;43621;51.798;21.588;2023-03-01T18:54:22;191.80;;;79.30;;
57790;SDS011;43621;51.798;21.588;2023-03-01T18:58:24;194.80;;;80.10;;
57790;SDS011;43621;51.798;21.588;2023-03-01T19:02:26;171.40;;;73.70;;
57790;SDS011;43621;51.798;21.588;2023-03-01T19:06:29;158.50;;;67.60;;
57790;SDS011;43621;51.798;21.588;2023-03-01T19:10:33;181.80;;;67.90;;
57790;SDS011;43621;51.798;21.588;2023-03-01T19:14:35;156.00;;;63.30;;
57790;SDS011;43621;51.798;21.588;2023-03-01T19:18:37;153.70;;;61.30;;
57790;SDS011;43621;51.798;21.588;2023-03-01T19:22:41;147.80;;;59.20;;
57790;SDS011;43621;51.798;21.588;2023-03-01T19:26:43;124.90;;;52.70;;
57790;SDS011;43621;51.798;21.588;2023-03-01T19:30:45;126.20;;;51.90;;
57790;SDS011;43621;51.798;21.588;2023-03-01T19:34:47;224.20;;;87.50;;
57790;SDS011;43621;51.798;21.588;2023-03-01T19:38:49;185.30;;;78.10;;
57790;SDS011;43621;51.798;21.588;2023-03-01T19:42:50;199.80;;;89.30;;
57790;SDS011;43621;51.798;21.588;2023-03-01T19:46:53;175.20;;;74.50;;
57790;SDS011;43621;51.798;21.588;2023-03-01T19:50:59;159.60;;;71.70;;
57790;SDS011;43621;51.798;21.588;2023-03-01T19:55:01;193.00;;;86.30;;
57790;SDS011;43621;51.798;21.588;2023-03-01T19:59:03;189.10;;;87.70;;
57790;SDS011;43621;51.798;21.588;2023-03-01T20:03:06;224.30;;;101.90;;
57790;SDS011;43621;51.798;21.588;2023-03-01T20:07:08;251.60;;;114.00;;
57790;SDS011;43621;51.798;21.588;2023-03-01T20:11:11;257.30;;;115.20;;
57790;SDS011;43621;51.798;21.588;2023-03-01T20:15:15;238.90;;;108.40;;
57790;SDS011;43621;51.798;21.588;2023-03-01T20:19:17;233.80;;;101.90;;
57790;SDS011;43621;51.798;21.588;2023-03-01T20:23:19;217.60;;;99.30;;
57790;SDS011;43621;51.798;21.588;2023-03-01T20:27:21;205.00;;;91.40;;
57790;SDS011;43621;51.798;21.588;2023-03-01T20:31:24;168.30;;;77.10;;
57790;SDS011;43621;51.798;21.588;2023-03-01T20:35:29;141.60;;;62.20;;
57790;SDS011;43621;51.798;21.588;2023-03-01T20:39:36;143.00;;;65.50;;
57790;SDS011;43621;51.798;21.588;2023-03-01T20:43:39;137.20;;;61.90;;
57790;SDS011;43621;51.798;21.588;2023-03-01T20:47:42;188.00;;;86.80;;
57790;SDS011;43621;51.798;21.588;2023-03-01T20:51:44;172.50;;;78.00;;
57790;SDS011;43621;51.798;21.588;2023-03-01T20:55:46;265.40;;;119.10;;
57790;SDS011;43621;51.798;21.588;2023-03-01T20:59:48;254.80;;;111.80;;
57790;SDS011;43621;51.798;21.588;2023-03-01T21:03:50;183.80;;;83.00;;
57790;SDS011;43621;51.798;21.588;2023-03-01T21:07:52;219.20;;;105.80;;
57790;SDS011;43621;51.798;21.588;2023-03-01T21:11:54;227.50;;;100.00;;
57790;SDS011;43621;51.798;21.588;2023-03-01T21:20:03;221.50;;;94.20;;
57790;SDS011;43621;51.798;21.588;2023-03-01T21:24:06;168.10;;;70.40;;
57790;SDS011;43621;51.798;21.588;2023-03-01T21:28:10;157.90;;;70.90;;
57790;SDS011;43621;51.798;21.588;2023-03-01T21:32:12;205.90;;;86.10;;
57790;SDS011;43621;51.798;21.588;2023-03-01T21:36:15;220.70;;;94.00;;
57790;SDS011;43621;51.798;21.588;2023-03-01T21:40:17;235.20;;;109.60;;
57790;SDS011;43621;51.798;21.588;2023-03-01T21:44:19;317.00;;;148.50;;
57790;SDS011;43621;51.798;21.588;2023-03-01T21:48:21;333.20;;;150.90;;
57790;SDS011;43621;51.798;21.588;2023-03-01T21:52:23;380.70;;;179.10;;
57790;SDS011;43621;51.798;21.588;2023-03-01T21:56:26;370.10;;;167.60;;
57790;SDS011;43621;51.798;21.588;2023-03-01T22:00:29;458.20;;;208.90;;
57790;SDS011;43621;51.798;21.588;2023-03-01T22:04:33;424.90;;;199.30;;
57790;SDS011;43621;51.798;21.588;2023-03-01T22:08:34;418.50;;;196.30;;
57790;SDS011;43621;51.798;21.588;2023-03-01T22:12:36;399.50;;;193.40;;
57790;SDS011;43621;51.798;21.588;2023-03-01T22:16:38;387.60;;;187.50;;
57790;SDS011;43621;51.798;21.588;2023-03-01T22:20:43;367.50;;;167.10;;
57790;SDS011;43621;51.798;21.588;2023-03-01T22:24:45;417.20;;;186.60;;
57790;SDS011;43621;51.798;21.588;2023-03-01T22:28:47;376.00;;;181.40;;
57790;SDS011;43621;51.798;21.588;2023-03-01T22:32:48;353.60;;;160.10;;
57790;SDS011;43621;51.798;21.588;2023-03-01T22:36:50;371.50;;;172.70;;
57790;SDS011;43621;51.798;21.588;2023-03-01T22:40:56;358.10;;;171.00;;
57790;SDS011;43621;51.798;21.588;2023-03-01T22:45:00;373.60;;;175.90;;
57790;SDS011;43621;51.798;21.588;2023-03-01T22:49:01;413.00;;;189.70;;
57790;SDS011;43621;51.798;21.588;2023-03-01T22:53:05;419.20;;;191.20;;
57790;SDS011;43621;51.798;21.588;2023-03-01T22:57:07;419.60;;;194.40;;
57790;SDS011;43621;51.798;21.588;2023-03-01T23:01:12;459.60;;;208.50;;
57790;SDS011;43621;51.798;21.588;2023-03-01T23:05:15;450.40;;;200.70;;
57790;SDS011;43621;51.798;21.588;2023-03-01T23:09:18;432.90;;;189.00;;
57790;SDS011;43621;51.798;21.588;2023-03-01T23:13:22;400.80;;;180.30;;
57790;SDS011;43621;51.798;21.588;2023-03-01T23:17:24;404.80;;;178.10;;
57790;SDS011;43621;51.798;21.588;2023-03-01T23:21:26;345.60;;;157.60;;
57790;SDS011;43621;51.798;21.588;2023-03-01T23:25:28;342.80;;;156.20;;
57790;SDS011;43621;51.798;21.588;2023-03-01T23:29:30;325.50;;;150.70;;
57790;SDS011;43621;51.798;21.588;2023-03-01T23:33:33;333.10;;;152.20;;
57790;SDS011;43621;51.798;21.588;2023-03-01T23:37:38;307.90;;;144.50;;
57790;SDS011;43621;51.798;21.588;2023-03-01T23:41:40;304.30;;;140.90;;
57790;SDS011;43621;51.798;21.588;2023-03-01T23:45:42;313.60;;;142.10;;
57790;SDS011;43621;51.798;21.588;2023-03-01T23:49:44;319.70;;;145.90;;
57790;SDS011;43621;51.798;21.588;2023-03-01T23:53:47;226.80;;;103.60;;
57790;SDS011;43621;51.798;21.588;2023-03-01T23:57:57;200.50;;;91.40;;
